sensor_id;sensor_type;location;lat;lon;timestamp;pressure;altitude;pressure_sealevel;temperature;humidity
77702;BME280;66868;42.708;23.404;2023-06-10T00:01:37;94794.88;;;19.12;84.70
77702;BME280;66868;42.708;23.404;2023-06-10T00:04:03;94805.63;;;18.89;86.29
77702;BME280;66868;42.708;23.404;2023-06-10T00:06:29;94812.66;;;18.87;86.02
77702;BME280;66868;42.708;23.404;2023-06-10T00:09:04;94800.06;;;18.76;87.34
77702;BME280;66868;42.708;23.404;2023-06-10T00:11:31;94806.81;;;18.77;87.52
77702;BME280;66868;42.708;23.404;2023-06-10T00:13:58;94803.06;;;18.72;87.43
77702;BME280;66868;42.708;23.404;2023-06-10T00:16:23;94799.25;;;18.76;86.82
77702;BME280;66868;42.708;23.404;2023-06-10T00:18:49;94797.25;;;18.87;86.56
77702;BME280;66868;42.708;23.404;2023-06-10T00:21:16;94787.09;;;18.95;86.43
77702;BME280;66868;42.708;23.404;2023-06-10T00:23:42;94767.66;;;18.93;85.99
77702;BME280;66868;42.708;23.404;2023-06-10T00:26:08;94786.97;;;19.05;86.05
77702;BME280;66868;42.708;23.404;2023-06-10T00:28:34;94781.41;;;19.10;85.65
77702;BME280;66868;42.708;23.404;2023-06-10T00:31:00;94783.53;;;19.14;85.44
77702;BME280;66868;42.708;23.404;2023-06-10T00:33:25;94785.94;;;19.16;85.45
77702;BME280;66868;42.708;23.404;2023-06-10T00:35:51;94761.44;;;18.95;85.03
77702;BME280;66868;42.708;23.404;2023-06-10T00:38:16;94805.22;;;19.20;84.65
77702;BME280;66868;42.708;23.404;2023-06-10T00:40:42;94783.63;;;19.05;84.28
77702;BME280;66868;42.708;23.404;2023-06-10T00:43:08;94799.06;;;19.13;84.37
77702;BME280;66868;42.708;23.404;2023-06-10T00:45:33;94811.00;;;19.22;84.56
77702;BME280;66868;42.708;23.404;2023-06-10T00:48:02;94807.78;;;19.20;84.88
77702;BME280;66868;42.708;23.404;2023-06-10T00:50:28;94783.63;;;19.05;84.96
77702;BME280;66868;42.708;23.404;2023-06-10T00:52:55;94788.44;;;19.08;84.80
77702;BME280;66868;42.708;23.404;2023-06-10T00:55:20;94798.94;;;19.14;84.63
77702;BME280;66868;42.708;23.404;2023-06-10T00:57:46;94804.34;;;19.11;84.42
77702;BME280;66868;42.708;23.404;2023-06-10T01:00:14;94792.47;;;19.10;83.93
77702;BME280;66868;42.708;23.404;2023-06-10T01:02:40;94810.34;;;19.20;83.99
77702;BME280;66868;42.708;23.404;2023-06-10T01:05:06;94812.63;;;19.23;83.67
77702;BME280;66868;42.708;23.404;2023-06-10T01:07:45;94807.50;;;19.23;83.76
77702;BME280;66868;42.708;23.404;2023-06-10T01:13:13;94804.25;;;19.21;83.83
77702;BME280;66868;42.708;23.404;2023-06-10T01:15:39;94801.69;;;19.21;84.07
77702;BME280;66868;42.708;23.404;2023-06-10T01:18:07;94804.25;;;19.21;83.83
77702;BME280;66868;42.708;23.404;2023-06-10T01:20:41;94805.81;;;19.14;84.10
77702;BME280;66868;42.708;23.404;2023-06-10T01:23:08;94810.97;;;19.14;84.23
77702;BME280;66868;42.708;23.404;2023-06-10T01:25:37;94806.78;;;19.13;84.64
77702;BME280;66868;42.708;23.404;2023-06-10T01:28:11;94806.25;;;18.91;86.40
77702;BME280;66868;42.708;23.404;2023-06-10T01:31:02;94796.69;;;18.93;85.98
77702;BME280;66868;42.708;23.404;2023-06-10T01:33:35;94787.44;;;18.65;86.08
77702;BME280;66868;42.708;23.404;2023-06-10T01:36:03;94803.81;;;18.82;86.01
77702;BME280;66868;42.708;23.404;2023-06-10T01:38:32;94807.91;;;18.75;86.22
77702;BME280;66868;42.708;23.404;2023-06-10T01:40:59;94802.50;;;18.50;88.39
77702;BME280;66868;42.708;23.404;2023-06-10T01:43:25;94805.59;;;18.27;89.13
77702;BME280;66868;42.708;23.404;2023-06-10T01:45:51;94805.34;;;18.02;91.24
77702;BME280;66868;42.708;23.404;2023-06-10T01:48:16;94799.88;;;17.88;92.32
77702;BME280;66868;42.708;23.404;2023-06-10T01:50:42;94805.16;;;17.86;92.66
77702;BME280;66868;42.708;23.404;2023-06-10T01:53:09;94797.66;;;17.75;93.30
77702;BME280;66868;42.708;23.404;2023-06-10T01:55:34;94788.00;;;17.59;94.69
77702;BME280;66868;42.708;23.404;2023-06-10T01:57:59;94769.03;;;17.43;95.04
77702;BME280;66868;42.708;23.404;2023-06-10T02:00:25;94788.28;;;17.47;95.89
77702;BME280;66868;42.708;23.404;2023-06-10T02:02:50;94784.41;;;17.43;96.70
77702;BME280;66868;42.708;23.404;2023-06-10T02:05:16;94778.97;;;17.65;94.92
77702;BME280;66868;42.708;23.404;2023-06-10T02:07:41;94775.94;;;17.79;94.22
77702;BME280;66868;42.708;23.404;2023-06-10T02:10:07;94753.72;;;17.80;93.50
77702;BME280;66868;42.708;23.404;2023-06-10T02:12:33;94780.75;;;18.09;93.01
77702;BME280;66868;42.708;23.404;2023-06-10T02:14:58;94789.06;;;18.21;92.62
77702;BME280;66868;42.708;23.404;2023-06-10T02:17:23;94789.44;;;18.26;92.21
77702;BME280;66868;42.708;23.404;2023-06-10T02:19:49;94782.06;;;18.41;91.60
77702;BME280;66868;42.708;23.404;2023-06-10T02:22:21;94779.00;;;18.55;90.76
77702;BME280;66868;42.708;23.404;2023-06-10T02:24:47;94757.88;;;18.53;90.51
77702;BME280;66868;42.708;23.404;2023-06-10T02:27:13;94778.31;;;18.63;90.31
77702;BME280;66868;42.708;23.404;2023-06-10T02:29:38;94768.25;;;18.69;90.14
77702;BME280;66868;42.708;23.404;2023-06-10T02:32:04;94761.16;;;18.63;90.35
77702;BME280;66868;42.708;23.404;2023-06-10T02:34:29;94767.53;;;18.77;90.23
77702;BME280;66868;42.708;23.404;2023-06-10T02:36:55;94765.16;;;18.83;89.92
77702;BME280;66868;42.708;23.404;2023-06-10T02:39:21;94766.47;;;18.87;89.90
77702;BME280;66868;42.708;23.404;2023-06-10T02:41:46;94761.25;;;18.97;90.44
77702;BME280;66868;42.708;23.404;2023-06-10T02:44:12;94765.00;;;19.03;90.65
77702;BME280;66868;42.708;23.404;2023-06-10T02:46:37;94742.34;;;18.98;90.89
77702;BME280;66868;42.708;23.404;2023-06-10T02:49:03;94756.25;;;19.13;91.11
77702;BME280;66868;42.708;23.404;2023-06-10T02:51:28;94760.63;;;19.21;90.66
77702;BME280;66868;42.708;23.404;2023-06-10T02:53:53;94731.53;;;19.12;90.47
77702;BME280;66868;42.708;23.404;2023-06-10T02:56:19;94727.06;;;19.14;90.35
77702;BME280;66868;42.708;23.404;2023-06-10T02:58:45;94750.03;;;19.24;90.48
77702;BME280;66868;42.708;23.404;2023-06-10T03:01:11;94751.06;;;19.31;90.70
77702;BME280;66868;42.708;23.404;2023-06-10T03:03:37;94755.75;;;19.35;90.65
77702;BME280;66868;42.708;23.404;2023-06-10T03:06:06;94749.50;;;19.38;90.54
77702;BME280;66868;42.708;23.404;2023-06-10T03:08:31;94751.09;;;19.39;90.18
77702;BME280;66868;42.708;23.404;2023-06-10T03:10:57;94755.69;;;19.45;90.00
77702;BME280;66868;42.708;23.404;2023-06-10T03:13:23;94770.75;;;19.48;89.57
77702;BME280;66868;42.708;23.404;2023-06-10T03:15:49;94774.59;;;19.44;89.38
77702;BME280;66868;42.708;23.404;2023-06-10T03:18:14;94758.00;;;19.38;88.82
77702;BME280;66868;42.708;23.404;2023-06-10T03:20:40;94769.56;;;19.42;88.63
77702;BME280;66868;42.708;23.404;2023-06-10T03:23:05;94773.50;;;19.47;88.19
77702;BME280;66868;42.708;23.404;2023-06-10T03:25:34;94768.13;;;19.40;87.63
77702;BME280;66868;42.708;23.404;2023-06-10T03:28:00;94775.91;;;19.48;87.38
77702;BME280;66868;42.708;23.404;2023-06-10T03:30:27;94761.97;;;19.33;87.50
77702;BME280;66868;42.708;23.404;2023-06-10T03:32:52;94797.41;;;19.47;87.39
77702;BME280;66868;42.708;23.404;2023-06-10T03:35:18;94795.06;;;19.36;87.42
77702;BME280;66868;42.708;23.404;2023-06-10T03:37:43;94797.72;;;19.26;87.96
77702;BME280;66868;42.708;23.404;2023-06-10T03:40:09;94743.38;;;18.87;88.14
77702;BME280;66868;42.708;23.404;2023-06-10T03:42:35;94780.09;;;19.06;88.38
77702;BME280;66868;42.708;23.404;2023-06-10T03:45:01;94791.06;;;19.16;89.07
77702;BME280;66868;42.708;23.404;2023-06-10T03:47:26;94785.47;;;19.20;88.91
77702;BME280;66868;42.708;23.404;2023-06-10T03:49:51;94783.41;;;19.24;88.56
77702;BME280;66868;42.708;23.404;2023-06-10T03:52:18;94776.47;;;19.16;88.56
77702;BME280;66868;42.708;23.404;2023-06-10T03:54:43;94773.47;;;19.21;88.95
77702;BME280;66868;42.708;23.404;2023-06-10T03:57:09;94788.44;;;19.33;88.40
77702;BME280;66868;42.708;23.404;2023-06-10T03:59:34;94788.31;;;19.35;88.24
77702;BME280;66868;42.708;23.404;2023-06-10T04:02:00;94787.19;;;19.37;87.99
77702;BME280;66868;42.708;23.404;2023-06-10T04:04:26;94770.94;;;19.29;87.85
77702;BME280;66868;42.708;23.404;2023-06-10T04:06:52;94786.25;;;19.38;87.28
77702;BME280;66868;42.708;23.404;2023-06-10T04:09:18;94783.53;;;19.40;87.42
77702;BME280;66868;42.708;23.404;2023-06-10T04:11:43;94794.47;;;19.42;87.91
77702;BME280;66868;42.708;23.404;2023-06-10T04:14:08;94789.19;;;19.44;87.89
77702;BME280;66868;42.708;23.404;2023-06-10T04:16:34;94777.09;;;19.36;87.58
77702;BME280;66868;42.708;23.404;2023-06-10T04:19:00;94797.41;;;19.47;87.26
77702;BME280;66868;42.708;23.404;2023-06-10T04:21:26;94777.38;;;19.33;86.68
77702;BME280;66868;42.708;23.404;2023-06-10T04:23:52;94799.81;;;19.49;86.65
77702;BME280;66868;42.708;23.404;2023-06-10T04:26:17;94794.53;;;19.50;86.89
77702;BME280;66868;42.708;23.404;2023-06-10T04:28:43;94778.72;;;19.37;87.07
77702;BME280;66868;42.708;23.404;2023-06-10T04:31:09;94797.75;;;19.52;87.03
77702;BME280;66868;42.708;23.404;2023-06-10T04:33:35;94800.97;;;19.54;87.02
77702;BME280;66868;42.708;23.404;2023-06-10T04:36:00;94773.50;;;19.47;86.61
77702;BME280;66868;42.708;23.404;2023-06-10T04:38:26;94798.09;;;19.57;85.94
77702;BME280;66868;42.708;23.404;2023-06-10T04:40:51;94760.75;;;19.37;85.77
77702;BME280;66868;42.708;23.404;2023-06-10T04:43:17;94788.50;;;19.59;86.16
77702;BME280;66868;42.708;23.404;2023-06-10T04:45:42;94791.06;;;19.59;86.52
77702;BME280;66868;42.708;23.404;2023-06-10T04:48:11;94777.53;;;19.49;86.19
77702;BME280;66868;42.708;23.404;2023-06-10T04:50:37;94788.31;;;19.61;86.37
77702;BME280;66868;42.708;23.404;2023-06-10T04:53:02;94794.78;;;19.65;86.08
77702;BME280;66868;42.708;23.404;2023-06-10T04:55:28;94795.28;;;19.68;86.39
77702;BME280;66868;42.708;23.404;2023-06-10T04:57:53;94786.44;;;19.71;85.90
77702;BME280;66868;42.708;23.404;2023-06-10T05:00:18;94791.31;;;19.74;85.98
77702;BME280;66868;42.708;23.404;2023-06-10T05:02:44;94790.69;;;19.80;85.66
77702;BME280;66868;42.708;23.404;2023-06-10T05:05:10;94794.41;;;19.85;85.55
77702;BME280;66868;42.708;23.404;2023-06-10T05:07:36;94790.72;;;19.88;85.62
77702;BME280;66868;42.708;23.404;2023-06-10T05:10:01;94780.56;;;19.78;85.10
77702;BME280;66868;42.708;23.404;2023-06-10T05:12:28;94793.47;;;19.95;84.54
77702;BME280;66868;42.708;23.404;2023-06-10T05:14:53;94789.94;;;19.96;84.24
77702;BME280;66868;42.708;23.404;2023-06-10T05:17:19;94765.19;;;19.87;83.76
77702;BME280;66868;42.708;23.404;2023-06-10T05:19:44;94780.13;;;19.91;84.02
77702;BME280;66868;42.708;23.404;2023-06-10T05:22:09;94771.41;;;19.84;84.25
77702;BME280;66868;42.708;23.404;2023-06-10T05:24:35;94785.91;;;19.93;84.21
77702;BME280;66868;42.708;23.404;2023-06-10T05:27:00;94787.25;;;19.97;84.21
77702;BME280;66868;42.708;23.404;2023-06-10T05:29:26;94783.50;;;19.92;83.74
77702;BME280;66868;42.708;23.404;2023-06-10T05:31:51;94795.78;;;20.06;83.61
77702;BME280;66868;42.708;23.404;2023-06-10T05:34:17;94799.31;;;20.13;83.89
77702;BME280;66868;42.708;23.404;2023-06-10T05:36:43;94798.06;;;20.17;83.50
77702;BME280;66868;42.708;23.404;2023-06-10T05:39:09;94799.06;;;20.24;83.16
77702;BME280;66868;42.708;23.404;2023-06-10T05:41:35;94795.56;;;20.33;82.93
77702;BME280;66868;42.708;23.404;2023-06-10T05:44:00;94808.78;;;20.38;82.93
77702;BME280;66868;42.708;23.404;2023-06-10T05:46:25;94805.88;;;20.41;83.19
77702;BME280;66868;42.708;23.404;2023-06-10T05:48:51;94804.59;;;20.53;82.98
77702;BME280;66868;42.708;23.404;2023-06-10T05:51:16;94804.66;;;20.61;82.97
77702;BME280;66868;42.708;23.404;2023-06-10T05:53:42;94796.28;;;20.67;82.27
77702;BME280;66868;42.708;23.404;2023-06-10T05:56:07;94802.41;;;20.83;82.59
77702;BME280;66868;42.708;23.404;2023-06-10T05:58:33;94796.16;;;20.93;81.95
77702;BME280;66868;42.708;23.404;2023-06-10T06:00:58;94803.72;;;21.11;80.85
77702;BME280;66868;42.708;23.404;2023-06-10T06:03:24;94785.84;;;21.09;80.87
77702;BME280;66868;42.708;23.404;2023-06-10T06:05:49;94819.50;;;21.32;80.47
77702;BME280;66868;42.708;23.404;2023-06-10T06:08:14;94806.78;;;21.39;79.87
77702;BME280;66868;42.708;23.404;2023-06-10T06:10:44;94813.69;;;21.54;79.52
77702;BME280;66868;42.708;23.404;2023-06-10T06:13:09;94805.84;;;21.15;79.67
77702;BME280;66868;42.708;23.404;2023-06-10T06:15:35;94809.38;;;21.14;80.22
77702;BME280;66868;42.708;23.404;2023-06-10T06:18:00;94808.56;;;21.30;80.28
77702;BME280;66868;42.708;23.404;2023-06-10T06:20:25;94790.53;;;21.30;79.50
77702;BME280;66868;42.708;23.404;2023-06-10T06:22:51;94806.75;;;21.55;79.58
77702;BME280;66868;42.708;23.404;2023-06-10T06:25:16;94802.06;;;21.67;78.98
77702;BME280;66868;42.708;23.404;2023-06-10T06:27:42;94806.38;;;21.74;79.05
77702;BME280;66868;42.708;23.404;2023-06-10T06:30:08;94808.47;;;21.79;78.58
77702;BME280;66868;42.708;23.404;2023-06-10T06:32:33;94813.66;;;21.63;78.89
77702;BME280;66868;42.708;23.404;2023-06-10T06:34:58;94810.44;;;21.69;78.58
77702;BME280;66868;42.708;23.404;2023-06-10T06:37:24;94802.91;;;21.43;79.33
77702;BME280;66868;42.708;23.404;2023-06-10T06:39:51;94803.88;;;21.34;81.21
77702;BME280;66868;42.708;23.404;2023-06-10T06:42:17;94795.03;;;21.28;81.23
77702;BME280;66868;42.708;23.404;2023-06-10T06:44:42;94804.69;;;21.18;82.05
77702;BME280;66868;42.708;23.404;2023-06-10T06:47:08;94799.25;;;21.13;81.82
77702;BME280;66868;42.708;23.404;2023-06-10T06:49:33;94763.16;;;20.72;83.07
77702;BME280;66868;42.708;23.404;2023-06-10T06:51:58;94795.03;;;20.80;84.13
77702;BME280;66868;42.708;23.404;2023-06-10T06:54:24;94795.78;;;20.72;84.21
77702;BME280;66868;42.708;23.404;2023-06-10T06:56:50;94779.06;;;20.44;84.82
77702;BME280;66868;42.708;23.404;2023-06-10T06:59:15;94790.78;;;20.54;84.86
77702;BME280;66868;42.708;23.404;2023-06-10T07:01:44;94790.31;;;20.59;84.79
77702;BME280;66868;42.708;23.404;2023-06-10T07:04:10;94789.84;;;20.63;84.32
77702;BME280;66868;42.708;23.404;2023-06-10T07:06:35;94782.44;;;20.52;83.35
77702;BME280;66868;42.708;23.404;2023-06-10T07:09:01;94788.88;;;20.64;81.28
77702;BME280;66868;42.708;23.404;2023-06-10T07:11:26;94745.44;;;20.53;80.35
77702;BME280;66868;42.708;23.404;2023-06-10T07:13:52;94782.78;;;20.73;77.80
77702;BME280;66868;42.708;23.404;2023-06-10T07:16:17;94787.94;;;20.82;77.20
77702;BME280;66868;42.708;23.404;2023-06-10T07:18:45;94785.53;;;20.96;77.27
77702;BME280;66868;42.708;23.404;2023-06-10T07:21:11;94792.31;;;21.13;76.84
77702;BME280;66868;42.708;23.404;2023-06-10T07:23:36;94785.09;;;21.17;76.39
77702;BME280;66868;42.708;23.404;2023-06-10T07:26:02;94786.50;;;21.20;76.57
77702;BME280;66868;42.708;23.404;2023-06-10T07:28:27;94782.16;;;21.28;76.25
77702;BME280;66868;42.708;23.404;2023-06-10T07:30:52;94773.13;;;21.32;74.36
77702;BME280;66868;42.708;23.404;2023-06-10T07:33:18;94781.03;;;21.23;75.19
77702;BME280;66868;42.708;23.404;2023-06-10T07:35:43;94787.63;;;21.33;73.03
77702;BME280;66868;42.708;23.404;2023-06-10T07:38:09;94757.06;;;21.22;73.69
77702;BME280;66868;42.708;23.404;2023-06-10T07:40:34;94786.31;;;21.53;73.14
77702;BME280;66868;42.708;23.404;2023-06-10T07:42:59;94772.44;;;21.63;73.70
77702;BME280;66868;42.708;23.404;2023-06-10T07:45:25;94784.06;;;21.58;73.50
77702;BME280;66868;42.708;23.404;2023-06-10T07:47:50;94778.06;;;21.66;73.51
77702;BME280;66868;42.708;23.404;2023-06-10T07:50:16;94778.97;;;21.89;72.78
77702;BME280;66868;42.708;23.404;2023-06-10T07:52:41;94775.56;;;21.97;73.39
77702;BME280;66868;42.708;23.404;2023-06-10T07:55:07;94779.25;;;22.02;72.95
77702;BME280;66868;42.708;23.404;2023-06-10T07:57:32;94776.88;;;22.01;71.62
77702;BME280;66868;42.708;23.404;2023-06-10T08:00:02;94762.06;;;21.79;72.39
77702;BME280;66868;42.708;23.404;2023-06-10T08:02:29;94783.97;;;21.91;72.13
77702;BME280;66868;42.708;23.404;2023-06-10T08:04:55;94775.41;;;21.98;72.62
77702;BME280;66868;42.708;23.404;2023-06-10T08:07:21;94776.38;;;21.97;72.09
77702;BME280;66868;42.708;23.404;2023-06-10T08:09:47;94774.28;;;22.01;69.24
77702;BME280;66868;42.708;23.404;2023-06-10T08:12:12;94759.16;;;21.90;68.63
77702;BME280;66868;42.708;23.404;2023-06-10T08:14:38;94763.63;;;22.04;68.75
77702;BME280;66868;42.708;23.404;2023-06-10T08:17:04;94753.28;;;22.12;68.66
77702;BME280;66868;42.708;23.404;2023-06-10T08:19:31;94764.13;;;22.30;66.72
77702;BME280;66868;42.708;23.404;2023-06-10T08:21:56;94766.97;;;22.43;66.96
77702;BME280;66868;42.708;23.404;2023-06-10T08:24:21;94765.94;;;22.53;66.94
77702;BME280;66868;42.708;23.404;2023-06-10T08:26:47;94765.25;;;22.59;66.22
77702;BME280;66868;42.708;23.404;2023-06-10T08:29:13;94759.88;;;22.45;65.50
77702;BME280;66868;42.708;23.404;2023-06-10T08:31:41;94756.69;;;22.35;65.12
77702;BME280;66868;42.708;23.404;2023-06-10T08:34:07;94759.22;;;22.43;64.22
77702;BME280;66868;42.708;23.404;2023-06-10T08:36:33;94746.09;;;22.53;65.20
77702;BME280;66868;42.708;23.404;2023-06-10T08:38:58;94758.63;;;22.64;65.77
77702;BME280;66868;42.708;23.404;2023-06-10T08:41:25;94729.59;;;22.62;65.94
77702;BME280;66868;42.708;23.404;2023-06-10T08:44:16;94739.91;;;22.85;65.84
77702;BME280;66868;42.708;23.404;2023-06-10T08:46:44;94719.63;;;22.82;64.67
77702;BME280;66868;42.708;23.404;2023-06-10T08:49:12;94744.53;;;23.12;64.73
77702;BME280;66868;42.708;23.404;2023-06-10T08:51:41;94743.75;;;23.26;64.57
77702;BME280;66868;42.708;23.404;2023-06-10T08:54:28;94736.38;;;23.38;64.17
77702;BME280;66868;42.708;23.404;2023-06-10T08:56:55;94739.25;;;23.43;62.16
77702;BME280;66868;42.708;23.404;2023-06-10T08:59:22;94730.78;;;23.34;62.69
77702;BME280;66868;42.708;23.404;2023-06-10T09:01:49;94734.19;;;23.50;62.22
77702;BME280;66868;42.708;23.404;2023-06-10T09:04:15;94727.06;;;23.52;61.71
77702;BME280;66868;42.708;23.404;2023-06-10T09:06:43;94728.59;;;23.61;61.93
77702;BME280;66868;42.708;23.404;2023-06-10T09:09:09;94731.34;;;23.74;60.63
77702;BME280;66868;42.708;23.404;2023-06-10T09:11:36;94734.09;;;23.87;59.61
77702;BME280;66868;42.708;23.404;2023-06-10T09:14:02;94739.78;;;23.97;59.93
77702;BME280;66868;42.708;23.404;2023-06-10T09:16:28;94730.56;;;24.09;60.29
77702;BME280;66868;42.708;23.404;2023-06-10T09:18:53;94729.75;;;24.24;60.06
77702;BME280;66868;42.708;23.404;2023-06-10T09:21:24;94727.34;;;24.37;59.04
77702;BME280;66868;42.708;23.404;2023-06-10T09:23:50;94726.28;;;24.52;58.46
77702;BME280;66868;42.708;23.404;2023-06-10T09:26:15;94722.03;;;24.66;58.59
77702;BME280;66868;42.708;23.404;2023-06-10T09:28:44;94710.31;;;24.70;57.09
77702;BME280;66868;42.708;23.404;2023-06-10T09:31:12;94712.44;;;24.60;57.50
77702;BME280;66868;42.708;23.404;2023-06-10T09:33:39;94716.00;;;24.59;58.47
77702;BME280;66868;42.708;23.404;2023-06-10T09:36:05;94693.06;;;24.56;57.67
77702;BME280;66868;42.708;23.404;2023-06-10T09:38:32;94708.75;;;24.69;57.62
77702;BME280;66868;42.708;23.404;2023-06-10T09:40:58;94720.56;;;24.78;57.81
77702;BME280;66868;42.708;23.404;2023-06-10T09:43:41;94720.56;;;24.78;58.13
77702;BME280;66868;42.708;23.404;2023-06-10T09:46:14;94710.16;;;24.72;58.12
77702;BME280;66868;42.708;23.404;2023-06-10T09:48:41;94709.34;;;24.71;58.66
77702;BME280;66868;42.708;23.404;2023-06-10T09:51:12;94708.59;;;24.77;59.10
77702;BME280;66868;42.708;23.404;2023-06-10T09:53:37;94681.41;;;24.67;57.43
77702;BME280;66868;42.708;23.404;2023-06-10T09:56:03;94694.03;;;24.97;57.45
77702;BME280;66868;42.708;23.404;2023-06-10T09:58:38;94690.78;;;25.17;57.73
77702;BME280;66868;42.708;23.404;2023-06-10T10:01:14;94652.31;;;25.14;56.67
77702;BME280;66868;42.708;23.404;2023-06-10T10:03:48;94698.28;;;25.67;55.94
77702;BME280;66868;42.708;23.404;2023-06-10T10:06:18;94664.16;;;25.57;55.19
77702;BME280;66868;42.708;23.404;2023-06-10T10:08:45;94694.22;;;25.92;54.44
77702;BME280;66868;42.708;23.404;2023-06-10T10:11:10;94682.88;;;26.00;52.22
77702;BME280;66868;42.708;23.404;2023-06-10T10:13:37;94661.09;;;25.94;52.00
77702;BME280;66868;42.708;23.404;2023-06-10T10:16:15;94686.38;;;26.27;51.63
77702;BME280;66868;42.708;23.404;2023-06-10T10:18:46;94693.59;;;26.38;49.51
77702;BME280;66868;42.708;23.404;2023-06-10T10:21:13;94694.00;;;26.48;50.68
77702;BME280;66868;42.708;23.404;2023-06-10T10:23:52;94670.44;;;26.56;50.69
77702;BME280;66868;42.708;23.404;2023-06-10T10:26:21;94685.44;;;26.74;51.48
77702;BME280;66868;42.708;23.404;2023-06-10T10:29:05;94683.69;;;26.88;51.05
77702;BME280;66868;42.708;23.404;2023-06-10T10:31:34;94671.72;;;26.87;49.50
77702;BME280;66868;42.708;23.404;2023-06-10T10:34:06;94669.28;;;27.05;49.00
77702;BME280;66868;42.708;23.404;2023-06-10T10:36:32;94680.47;;;27.18;49.19
77702;BME280;66868;42.708;23.404;2023-06-10T10:38:57;94653.09;;;27.09;48.95
77702;BME280;66868;42.708;23.404;2023-06-10T10:41:24;94662.84;;;27.27;49.20
77702;BME280;66868;42.708;23.404;2023-06-10T10:43:52;94672.03;;;27.49;48.20
77702;BME280;66868;42.708;23.404;2023-06-10T10:46:18;94677.56;;;27.73;48.83
77702;BME280;66868;42.708;23.404;2023-06-10T10:48:44;94654.34;;;27.78;47.18
77702;BME280;66868;42.708;23.404;2023-06-10T10:51:10;94669.41;;;28.07;47.33
77702;BME280;66868;42.708;23.404;2023-06-10T10:53:39;94666.53;;;28.28;46.77
77702;BME280;66868;42.708;23.404;2023-06-10T10:56:07;94661.22;;;28.41;46.77
77702;BME280;66868;42.708;23.404;2023-06-10T10:58:33;94665.88;;;28.64;47.26
77702;BME280;66868;42.708;23.404;2023-06-10T11:00:59;94664.97;;;28.83;45.95
77702;BME280;66868;42.708;23.404;2023-06-10T11:03:28;94618.53;;;28.67;45.01
77702;BME280;66868;42.708;23.404;2023-06-10T11:05:57;94665.22;;;29.00;40.82
77702;BME280;66868;42.708;23.404;2023-06-10T11:10:58;94664.81;;;29.03;39.33
77702;BME280;66868;42.708;23.404;2023-06-10T11:13:25;94657.22;;;29.20;41.81
77702;BME280;66868;42.708;23.404;2023-06-10T11:15:52;94653.28;;;29.35;42.03
77702;BME280;66868;42.708;23.404;2023-06-10T11:20:58;94647.09;;;29.84;39.80
77702;BME280;66868;42.708;23.404;2023-06-10T11:33:54;94636.66;;;30.33;36.33
77702;BME280;66868;42.708;23.404;2023-06-10T11:36:21;94627.34;;;30.37;35.37
77702;BME280;66868;42.708;23.404;2023-06-10T11:38:46;94632.88;;;30.58;35.75
77702;BME280;66868;42.708;23.404;2023-06-10T11:41:13;94624.69;;;30.66;34.35
77702;BME280;66868;42.708;23.404;2023-06-10T11:43:45;94624.84;;;30.95;33.00
77702;BME280;66868;42.708;23.404;2023-06-10T11:46:15;94626.91;;;31.28;33.54
77702;BME280;66868;42.708;23.404;2023-06-10T11:48:56;94629.50;;;31.63;32.06
77702;BME280;66868;42.708;23.404;2023-06-10T11:51:25;94616.56;;;31.84;31.90
77702;BME280;66868;42.708;23.404;2023-06-10T11:53:50;94621.72;;;32.08;30.64
77702;BME280;66868;42.708;23.404;2023-06-10T11:56:27;94617.34;;;32.25;31.51
77702;BME280;66868;42.708;23.404;2023-06-10T11:58:58;94603.22;;;32.26;33.54
77702;BME280;66868;42.708;23.404;2023-06-10T12:01:25;94615.91;;;32.17;31.07
77702;BME280;66868;42.708;23.404;2023-06-10T12:04:02;94606.50;;;32.05;31.38
77702;BME280;66868;42.708;23.404;2023-06-10T12:06:46;94596.69;;;32.12;32.53
77702;BME280;66868;42.708;23.404;2023-06-10T12:09:26;94598.69;;;32.21;32.55
77702;BME280;66868;42.708;23.404;2023-06-10T12:14:53;94610.94;;;32.04;30.44
77702;BME280;66868;42.708;23.404;2023-06-10T12:17:42;94610.94;;;31.64;31.24
77702;BME280;66868;42.708;23.404;2023-06-10T12:20:23;94615.25;;;31.70;32.61
77702;BME280;66868;42.708;23.404;2023-06-10T12:22:49;94599.06;;;31.73;31.56
77702;BME280;66868;42.708;23.404;2023-06-10T12:25:27;94611.88;;;31.58;30.52
77702;BME280;66868;42.708;23.404;2023-06-10T12:27:54;94583.25;;;31.17;30.95
77702;BME280;66868;42.708;23.404;2023-06-10T12:30:24;94586.63;;;31.17;32.00
77702;BME280;66868;42.708;23.404;2023-06-10T12:32:51;94594.72;;;31.27;33.17
77702;BME280;66868;42.708;23.404;2023-06-10T12:35:19;94596.41;;;31.22;32.49
77702;BME280;66868;42.708;23.404;2023-06-10T12:38:02;94594.94;;;30.91;32.07
77702;BME280;66868;42.708;23.404;2023-06-10T12:40:37;94580.84;;;30.68;32.28
77702;BME280;66868;42.708;23.404;2023-06-10T12:43:05;94585.75;;;30.35;32.35
77702;BME280;66868;42.708;23.404;2023-06-10T12:45:36;94584.41;;;29.73;32.69
77702;BME280;66868;42.708;23.404;2023-06-10T12:48:20;94577.16;;;29.75;33.73
77702;BME280;66868;42.708;23.404;2023-06-10T12:53:18;94580.09;;;29.30;34.04
77702;BME280;66868;42.708;23.404;2023-06-10T12:55:45;94575.72;;;29.06;35.16
77702;BME280;66868;42.708;23.404;2023-06-10T12:58:11;94583.38;;;29.01;34.60
77702;BME280;66868;42.708;23.404;2023-06-10T13:00:37;94579.47;;;28.92;35.32
77702;BME280;66868;42.708;23.404;2023-06-10T13:03:03;94572.91;;;28.58;34.72
77702;BME280;66868;42.708;23.404;2023-06-10T13:05:31;94541.09;;;28.31;35.52
77702;BME280;66868;42.708;23.404;2023-06-10T13:07:57;94564.00;;;28.23;35.62
77702;BME280;66868;42.708;23.404;2023-06-10T13:10:23;94571.19;;;28.27;36.36
77702;BME280;66868;42.708;23.404;2023-06-10T13:12:51;94555.28;;;28.04;36.66
77702;BME280;66868;42.708;23.404;2023-06-10T13:15:17;94580.84;;;28.20;37.37